Terminal Aerodrome Forecast
Issued by NWS Knoxville/Tri Cities, TN

Home | Current Version | Previous Version | Text Only | Print | Product List | Glossary On
Versions: 1 2 3 4 5 6 7 8 9 10 11 12 13 14 15 16
000
FTUS44 KMRX 292320
TAFTYS
TAF
KTYS 292320Z 3000/3024 VRB03KT P6SM FEW060 SCT250
     FM301500 21010G18KT P6SM SCT060 BKN150
     FM301900 20014G24KT P6SM SCT050 BKN120=

USA.gov is the U.S. government's official web portal to all federal, state and local government web resources and services.